Time;durP1;ratioP1;P1;durP2;ratioP2;P2;SDS_P1;SDS_P2;PMS_P1;PMS_P2;Temp;Humidity;BMP_temperature;BMP_pressure;BME280_temperature;BME280_humidity;BME280_pressure;Samples;Min_cycle;Max_cycle;Signal;HPM_P1;HPM_P2
2021/04/11 00:02:01;;;;;;;;;;;7.10;77.20;;;;;;5107456;28;20047;-47
2021/04/11 00:04:29;;;;;;;16.77;9.23;;;;;;;;;;5101284;28;19923;-51
2021/04/11 00:06:55;;;;;;;;;;;7.20;74.60;;;;;;5106118;28;20098;-46
2021/04/11 00:09:22;;;;;;;12.82;8.52;;;;;;;;;;5094891;28;19924;-48
2021/04/11 00:11:48;;;;;;;;;;;5.60;80.40;;;;;;5103539;28;20134;-50
2021/04/11 00:14:16;;;;;;;12.52;8.02;;;5.30;84.70;;;;;;5100902;28;19920;-48
2021/04/11 00:16:43;;;;;;;12.75;8.38;;;;;;;;;;5101373;28;20075;-47
2021/04/11 00:19:10;;;;;;;11.02;6.93;;;;;;;;;;5103008;28;20044;-49
2021/04/11 00:21:36;;;;;;;;;;;6.40;76.80;;;;;;5095998;28;20063;-47
2021/04/11 00:24:03;;;;;;;11.23;7.97;;;;;;;;;;5103858;28;19920;-50
2021/04/11 00:26:30;;;;;;;10.15;6.75;;;;;;;;;;5108868;28;20597;-48
2021/04/11 00:28:57;;;;;;;;;;;5.70;77.70;;;;;;5104462;28;20559;-47
2021/04/11 00:31:26;;;;;;;9.38;6.45;;;;;;;;;;5101089;28;19958;-50
2021/04/11 00:33:55;;;;;;;11.52;7.55;;;;;;;;;;5107306;28;20075;-48
2021/04/11 00:36:22;;;;;;;11.02;7.30;;;;;;;;;;5108545;28;20765;-49
2021/04/11 00:38:48;;;;;;;;;;;4.70;85.10;;;;;;5080787;28;20051;-47
2021/04/11 00:41:16;;;;;;;14.05;8.90;;;;;;;;;;5107050;28;19919;-50
2021/04/11 00:43:43;;;;;;;;;;;5.20;83.60;;;;;;5100982;28;20108;-48
2021/04/11 00:46:24;;;;;;;13.75;8.35;;;6.20;76.90;;;;;;5103770;28;19927;-49
2021/04/11 00:48:51;;;;;;;13.68;9.13;;;;;;;;;;5090896;28;20063;-51
2021/04/11 00:51:23;;;;;;;9.98;6.40;;;5.80;75.30;;;;;;5106909;28;20051;-47
2021/04/11 00:53:50;;;;;;;7.35;5.68;;;;;;;;;;5090608;28;20493;-47
2021/04/11 00:56:18;;;;;;;13.20;8.30;;;;;;;;;;5062068;28;20048;-51
2021/04/11 00:58:45;;;;;;;9.63;6.97;;;;;;;;;;5088864;28;20055;-49
2021/04/11 01:01:12;;;;;;;;;;;4.60;83.30;;;;;;5082326;28;20044;-47
2021/04/11 01:03:39;;;;;;;;;;;4.60;83.90;;;;;;5104196;28;20366;-47
2021/04/11 01:06:12;;;;;;;13.93;7.38;;;5.00;81.50;;;;;;5107517;28;19934;-52
2021/04/11 01:08:40;;;;;;;15.75;9.98;;;;;;;;;;5075848;28;20062;-49
2021/04/11 01:11:09;;;;;;;15.35;9.35;;;;;;;;;;5075812;28;20044;-46
2021/04/11 01:13:44;;;;;;;18.52;10.23;;;6.60;75.80;;;;;;5093696;28;20048;-50
2021/04/11 01:16:13;;;;;;;9.90;7.25;;;;;;;;;;5075528;28;20087;-49
2021/04/11 01:18:41;;;;;;;12.88;8.30;;;;;;;;;;5093640;28;20627;-45
2021/04/11 01:21:20;;;;;;;13.63;9.13;;;6.00;78.30;;;;;;5093321;28;20097;-46
2021/04/11 01:24:02;;;;;;;12.63;8.95;;;6.30;76.30;;;;;;5093564;28;20444;-48
2021/04/11 01:26:33;;;;;;;14.07;9.03;;;;;;;;;;5093648;28;20594;-48
2021/04/11 01:29:01;;;;;;;18.25;9.55;;;;;;;;;;5092523;28;20040;-50
2021/04/11 01:31:33;;;;;;;12.77;8.75;;;7.30;72.70;;;;;;5075743;28;20044;-47
2021/04/11 01:34:01;;;;;;;13.75;9.00;;;7.40;70.20;;;;;;5075490;28;20402;-45
2021/04/11 01:36:30;;;;;;;13.43;8.13;;;6.60;73.40;;;;;;5074918;28;20040;-46
2021/04/11 01:39:02;;;;;;;9.75;6.63;;;6.30;72.80;;;;;;5093270;28;20056;-51
2021/04/11 01:41:41;;;;;;;15.27;7.88;;;6.20;74.80;;;;;;5075453;28;20443;-50
2021/04/11 01:44:10;;;;;;;11.25;7.10;;;6.60;73.20;;;;;;5075303;28;20158;-44
2021/04/11 01:46:38;;;;;;;10.63;7.55;;;;;;;;;;5075516;28;20044;-45
2021/04/11 01:49:05;;;;;;;12.00;8.20;;;;;;;;;;5092864;28;20455;-46
2021/04/11 01:51:37;;;;;;;8.45;5.72;;;6.30;73.20;;;;;;5074694;28;20044;-48
2021/04/11 01:54:17;;;;;;;11.95;7.35;;;6.40;75.20;;;;;;5075266;28;20048;-47
2021/04/11 01:56:45;;;;;;;9.43;6.80;;;5.30;76.90;;;;;;5074876;28;20070;-46
2021/04/11 01:59:17;;;;;;;11.98;7.55;;;5.10;80.60;;;;;;5093230;28;20499;-45
2021/04/11 02:01:49;;;;;;;10.40;7.27;;;5.30;78.30;;;;;;5075007;28;20127;-52
2021/04/11 02:04:18;;;;;;;11.98;7.18;;;;;;;;;;5092615;28;20830;-45
2021/04/11 02:06:57;;;;;;;10.18;6.97;;;5.30;79.00;;;;;;5074384;28;20502;-48
2021/04/11 02:09:34;;;;;;;13.73;8.30;;;5.70;77.20;;;;;;5075349;28;20157;-51
2021/04/11 02:12:17;;;;;;;11.97;6.57;;;5.70;75.40;;;;;;5080893;28;20043;-50
2021/04/11 02:14:49;;;;;;;12.45;7.97;;;;;;;;;;5074336;28;20506;-49
2021/04/11 02:17:16;;;;;;;;;;;5.60;77.40;;;;;;5093163;28;20044;-52
2021/04/11 02:19:44;;;;;;;11.27;7.32;;;;;;;;;;5074195;28;19920;-49
2021/04/11 02:22:29;;;;;;;13.27;7.68;;;5.30;76.20;;;;;;5074462;28;20051;-51
2021/04/11 02:25:07;;;;;;;11.90;7.90;;;5.80;77.60;;;;;;5074281;28;20048;-50
2021/04/11 02:27:35;;;;;;;13.50;8.60;;;;;;;;;;5092636;28;20118;-50
2021/04/11 02:30:11;;;;;;;11.95;8.38;;;6.80;72.80;;;;;;5074584;28;20131;-50
2021/04/11 02:32:38;;;;;;;16.02;7.82;;;;;;;;;;5074688;28;20245;-52
2021/04/11 02:35:08;;;;;;;11.57;7.90;;;6.80;70.50;;;;;;5100174;28;20048;-53
2021/04/11 02:37:37;;;;;;;9.90;5.65;;;6.00;72.40;;;;;;5111469;28;20048;-53
2021/04/11 02:40:09;;;;;;;12.70;7.15;;;5.50;75.30;;;;;;5090989;28;20047;-49
2021/04/11 02:42:37;;;;;;;11.45;7.40;;;;;;;;;;5081732;28;20100;-53
2021/04/11 02:45:11;;;;;;;8.05;5.88;;;5.40;78.70;;;;;;5111296;28;20135;-50
2021/04/11 02:47:45;;;;;;;9.90;6.90;;;;;;;;;;5082465;28;20043;-47
2021/04/11 02:50:14;;;;;;;12.88;8.80;;;5.70;78.90;;;;;;5097780;28;20135;-50
2021/04/11 02:52:53;;;;;;;18.13;10.13;;;6.30;75.50;;;;;;5089832;28;20039;-49
2021/04/11 02:55:21;;;;;;;13.65;8.40;;;7.10;72.30;;;;;;5109517;28;20040;-50
2021/04/11 02:57:54;;;;;;;12.55;8.68;;;6.70;72.60;;;;;;5109723;28;20101;-49
2021/04/11 03:00:23;;;;;;;16.85;8.35;;;6.50;73.60;;;;;;5094251;28;20489;-50
2021/04/11 03:02:55;;;;;;;13.60;8.18;;;;;;;;;;5084147;28;20050;-46
2021/04/11 03:05:25;;;;;;;10.90;7.75;;;6.80;73.10;;;;;;5081765;28;20048;-48
2021/04/11 03:07:56;;;;;;;15.15;7.68;;;7.30;70.90;;;;;;5096863;28;20126;-50
2021/04/11 03:10:56;;;;;;;11.88;5.65;;;6.90;70.00;;;;;;5074760;28;20497;-48
2021/04/11 03:13:28;;;;;;;11.45;7.53;;;7.10;72.60;;;;;;5075107;28;20402;-48
2021/04/11 03:15:58;;;;;;;10.30;6.18;;;;;;;;;;5074831;28;20084;-53
2021/04/11 03:18:26;;;;;;;9.35;6.20;;;7.20;70.70;;;;;;5073766;28;20097;-49
2021/04/11 03:20:56;;;;;;;12.02;5.70;;;6.50;73.10;;;;;;5073687;28;20063;-48
2021/04/11 03:23:28;;;;;;;9.63;6.22;;;;;;;;;;5072373;28;20047;-49
2021/04/11 03:26:36;;;;;;;6.47;4.07;;;6.10;72.70;;;;;;5073687;28;20067;-48
2021/04/11 03:29:10;;;;;;;7.30;5.25;;;5.90;76.90;;;;;;5006327;28;20033;-50
2021/04/11 03:31:44;;;;;;;10.20;5.28;;;6.30;75.50;;;;;;5012203;28;20581;-48
2021/04/11 03:34:15;;;;;;;6.85;5.03;;;6.50;73.30;;;;;;5012500;28;20057;-49
2021/04/11 03:36:44;;;;;;;8.10;5.10;;;;;;;;;;5012376;28;20499;-50
2021/04/11 03:39:13;;;;;;;9.57;5.15;;;6.90;72.00;;;;;;5012516;28;20049;-50
2021/04/11 03:41:44;;;;;;;6.60;5.10;;;7.00;71.10;;;;;;5012713;28;20535;-52
2021/04/11 03:44:20;;;;;;;5.15;4.38;;;7.20;70.80;;;;;;5028833;28;20071;-45
2021/04/11 03:47:04;;;;;;;7.93;5.15;;;7.50;70.60;;;;;;5012023;28;20042;-45
2021/04/11 03:49:53;;;;;;;6.32;4.50;;;7.50;69.20;;;;;;5012618;28;20042;-50
2021/04/11 03:52:36;;;;;;;6.35;4.50;;;7.60;67.70;;;;;;5012968;28;20049;-47
2021/04/11 03:55:13;;;;;;;5.60;4.15;;;7.10;71.00;;;;;;5030321;28;20455;-53
2021/04/11 03:57:52;;;;;;;6.78;3.38;;;5.80;73.80;;;;;;5014642;28;20049;-48
2021/04/11 04:01:01;;;;;;;6.55;4.40;;;6.00;75.00;;;;;;5029743;28;20054;-50
2021/04/11 04:03:34;;;;;;;5.00;4.05;;;6.50;73.80;;;;;;4990182;28;20905;-45
2021/04/11 04:06:16;;;;;;;4.25;3.85;;;6.70;72.20;;;;;;4985806;28;20077;-49
2021/04/11 04:08:43;;;;;;;5.43;4.50;;;;;;;;;;4992659;28;20120;-48
2021/04/11 04:11:53;;;;;;;4.35;3.90;;;6.00;73.60;;;;;;4992495;28;20444;-48
2021/04/11 04:14:56;;;;;;;4.68;4.00;;;6.00;76.40;;;;;;4989005;28;20078;-48
2021/04/11 04:17:25;;;;;;;8.02;4.53;;;;;;;;;;4992715;28;20046;-46
2021/04/11 04:20:16;;;;;;;4.43;3.80;;;5.50;76.20;;;;;;5008890;28;20669;-46
2021/04/11 04:23:06;;;;;;;7.32;4.45;;;5.90;76.90;;;;;;5000810;28;20088;-47
2021/04/11 04:25:56;;;;;;;4.20;3.80;;;5.40;77.10;;;;;;5008811;28;20046;-47
2021/04/11 04:28:59;;;;;;;5.07;4.10;;;5.70;77.20;;;;;;4992047;28;20141;-53
2021/04/11 04:31:53;;;;;;;4.82;3.85;;;5.60;78.10;;;;;;5009071;28;20509;-51
2021/04/11 04:34:25;;;;;;;5.10;4.07;;;6.00;75.70;;;;;;4996401;28;20050;-47
2021/04/11 04:36:52;;;;;;;4.20;3.80;;;;;;;;;;5012040;28;20053;-51
2021/04/11 04:40:05;;;;;;;4.20;3.80;;;5.90;75.50;;;;;;5024719;28;20503;-52
2021/04/11 04:42:44;;;;;;;3.88;3.55;;;5.40;78.30;;;;;;4991593;28;20058;-48
2021/04/11 04:45:12;;;;;;;5.90;4.07;;;;;;;;;;4976073;28;20070;-50
2021/04/11 04:48:14;;;;;;;5.35;4.05;;;5.60;76.90;;;;;;4992866;28;20055;-51
2021/04/11 04:50:46;;;;;;;7.50;4.55;;;5.20;79.10;;;;;;4992298;28;20051;-50
2021/04/11 04:53:16;;;;;;;4.50;3.90;;;;;;;;;;4976343;28;20418;-52
2021/04/11 04:55:53;;;;;;;5.38;4.50;;;6.20;76.50;;;;;;4992195;28;20436;-53
2021/04/11 04:58:38;;;;;;;5.78;4.15;;;6.30;73.80;;;;;;4992217;28;20543;-49
2021/04/11 05:01:22;;;;;;;5.55;4.28;;;6.40;76.40;;;;;;4969990;28;20050;-50
2021/04/11 05:04:15;;;;;;;8.20;4.90;;;6.60;74.70;;;;;;4992372;28;20065;-52
2021/04/11 05:06:51;;;;;;;7.60;4.53;;;6.80;73.00;;;;;;4992055;28;20053;-48
2021/04/11 05:10:18;;;;;;;6.78;5.30;;;7.00;73.10;;;;;;4953390;29;20051;-49
2021/04/11 05:13:17;;;;;;;4.78;4.25;;;5.80;76.90;;;;;;4933870;28;20080;-51
2021/04/11 05:16:02;;;;;;;7.80;4.65;;;5.90;77.50;;;;;;4965648;28;20058;-51
2021/04/11 05:18:44;;;;;;;9.88;4.75;;;6.70;75.50;;;;;;4973754;28;20054;-50
2021/04/11 05:21:36;;;;;;;8.52;4.75;;;7.10;72.00;;;;;;4989017;28;20424;-48
2021/04/11 05:24:13;;;;;;;6.75;4.97;;;6.80;74.20;;;;;;4979162;28;20131;-48
2021/04/11 05:26:50;;;;;;;6.70;4.60;;;7.00;73.90;;;;;;5009896;28;20050;-51
2021/04/11 05:29:25;;;;;;;6.00;4.47;;;;;;;;;;5011480;28;20049;-50
2021/04/11 05:31:54;;;;;;;;;;;7.00;71.50;;;;;;5011813;28;20124;-49
2021/04/11 05:34:24;;;;;;;7.68;4.40;;;6.70;75.10;;;;;;5011527;28;19921;-49
2021/04/11 05:36:51;;;;;;;5.88;4.15;;;;;;;;;;4994772;28;20053;-51
2021/04/11 05:39:23;;;;;;;;;;;6.10;75.10;;;;;;4998042;28;20078;-44
2021/04/11 05:42:15;;;;;;;5.28;3.88;;;6.20;77.00;;;;;;5010892;28;19957;-48
2021/04/11 05:44:52;;;;;;;7.53;3.92;;;6.50;74.20;;;;;;5017755;28;20048;-50
2021/04/11 05:47:37;;;;;;;;;;;6.50;74.70;;;;;;5068762;28;20116;-46
2021/04/11 05:50:09;;;;;;;4.80;4.00;;;6.80;73.40;;;;;;5073100;28;19959;-51
2021/04/11 05:53:06;;;;;;;5.82;4.35;;;6.30;75.60;;;;;;5071916;28;20044;-48
2021/04/11 05:55:38;;;;;;;3.67;3.00;;;6.20;75.10;;;;;;5071337;28;20117;-49
2021/04/11 05:58:16;;;;;;;6.03;3.88;;;5.90;77.40;;;;;;5082338;28;20102;-49
2021/04/11 06:00:48;;;;;;;4.03;3.63;;;5.60;79.10;;;;;;5085828;28;20057;-46
2021/04/11 06:03:20;;;;;;;4.85;3.80;;;5.60;78.60;;;;;;5061981;28;20059;-49
2021/04/11 06:05:53;;;;;;;4.38;3.78;;;5.50;80.30;;;;;;5070753;28;20052;-49
2021/04/11 06:08:44;;;;;;;3.78;3.40;;;5.60;78.10;;;;;;5085412;28;20052;-49
2021/04/11 06:11:47;;;;;;;5.47;3.70;;;6.00;79.40;;;;;;5085709;28;20448;-50
2021/04/11 06:14:35;;;;;;;5.22;3.97;;;6.50;76.20;;;;;;5085624;28;20048;-50
2021/04/11 06:17:10;;;;;;;5.07;3.92;;;6.00;76.90;;;;;;5065371;28;20120;-48
2021/04/11 06:19:38;;;;;;;4.32;3.78;;;;;;;;;;5072139;28;20506;-47
2021/04/11 06:22:14;;;;;;;7.70;4.18;;;6.50;75.90;;;;;;5071528;28;20041;-50
2021/04/11 06:24:50;;;;;;;6.47;4.07;;;7.00;73.40;;;;;;5071939;28;20106;-51
2021/04/11 06:27:32;;;;;;;7.55;4.20;;;7.10;71.70;;;;;;5071567;28;20044;-52
2021/04/11 06:30:13;;;;;;;7.03;3.78;;;6.70;72.40;;;;;;5072265;28;20052;-51
2021/04/11 06:32:45;;;;;;;4.25;3.70;;;6.90;73.60;;;;;;5059447;28;20560;-50
2021/04/11 06:35:15;;;;;;;4.35;3.60;;;7.30;71.50;;;;;;5071939;28;20040;-47
2021/04/11 06:37:44;;;;;;;4.50;3.72;;;7.20;71.20;;;;;;5071528;28;20048;-50
2021/04/11 06:40:55;;;;;;;3.83;3.17;;;7.10;70.20;;;;;;5071596;28;20091;-53
2021/04/11 06:43:32;;;;;;;6.25;4.07;;;7.10;69.50;;;;;;5001402;28;20064;-49
2021/04/11 06:46:39;;;;;;;3.78;3.30;;;6.50;72.20;;;;;;5009918;28;20053;-48
2021/04/11 06:49:40;;;;;;;4.95;3.40;;;5.90;75.00;;;;;;4950825;28;20510;-47
2021/04/11 06:52:44;;;;;;;4.78;3.50;;;5.70;75.70;;;;;;4969827;28;20059;-51
2021/04/11 06:55:11;;;;;;;4.05;3.42;;;;;;;;;;4961175;28;20386;-45
2021/04/11 06:57:38;;;;;;;4.30;3.50;;;;;;;;;;4969657;28;20145;-53
2021/04/11 07:00:09;;;;;;;;;;;5.80;74.60;;;;;;4970782;28;20054;-45
2021/04/11 07:03:06;;;;;;;4.88;3.60;;;5.90;75.00;;;;;;4970010;28;20459;-48
2021/04/11 07:05:57;;;;;;;3.83;3.53;;;6.40;72.60;;;;;;4970470;28;20058;-47
2021/04/11 07:08:38;;;;;;;3.97;3.30;;;6.00;73.40;;;;;;4957655;28;20066;-50
2021/04/11 07:11:17;;;;;;;5.03;3.40;;;6.20;73.70;;;;;;4969699;28;20050;-48
2021/04/11 07:14:14;;;;;;;3.80;3.40;;;6.30;71.30;;;;;;4970028;28;20074;-54
2021/04/11 07:16:41;;;;;;;3.85;3.50;;;;;;;;;;4971081;28;20061;-48
2021/04/11 07:19:07;;;;;;;;;;;5.70;74.00;;;;;;4992958;28;20057;-47
2021/04/11 07:22:19;;;;;;;3.97;3.40;;;5.40;74.80;;;;;;5006640;28;19926;-51
2021/04/11 07:25:12;;;;;;;3.85;3.50;;;5.40;75.10;;;;;;5011688;28;20060;-51
2021/04/11 07:27:58;;;;;;;4.25;3.40;;;5.40;75.20;;;;;;5085642;28;20052;-51
2021/04/11 07:30:47;;;;;;;5.45;3.40;;;5.50;74.00;;;;;;5105494;28;20120;-52
2021/04/11 07:33:26;;;;;;;4.95;3.70;;;5.60;75.10;;;;;;5103154;28;20078;-51
2021/04/11 07:36:10;;;;;;;4.57;3.25;;;5.90;74.30;;;;;;5096404;28;20424;-47
2021/04/11 07:39:19;;;;;;;3.95;3.38;;;5.90;73.50;;;;;;5096248;28;20478;-51
2021/04/11 07:42:11;;;;;;;4.53;3.50;;;5.70;74.60;;;;;;5085859;28;20101;-54
2021/04/11 07:45:09;;;;;;;4.78;3.58;;;5.70;74.50;;;;;;5079429;28;20452;-52
2021/04/11 07:47:36;;;;;;;6.28;3.70;;;;;;;;;;5104794;28;20101;-51
2021/04/11 07:50:33;;;;;;;7.70;4.10;;;6.20;74.80;;;;;;5101392;28;20046;-50
2021/04/11 07:53:26;;;;;;;8.15;3.97;;;5.90;74.70;;;;;;5095666;28;20528;-54
2021/04/11 07:56:17;;;;;;;6.13;4.05;;;6.50;74.40;;;;;;5104625;28;20447;-50
2021/04/11 07:59:10;;;;;;;7.97;4.35;;;6.30;72.50;;;;;;5102267;28;20039;-48
2021/04/11 08:01:47;;;;;;;5.35;3.80;;;6.20;74.40;;;;;;5097046;28;20059;-50
2021/04/11 08:04:32;;;;;;;6.18;4.47;;;6.70;74.00;;;;;;5104509;28;20043;-52
2021/04/11 08:07:15;;;;;;;6.68;4.22;;;7.30;70.80;;;;;;5098733;28;20343;-52
2021/04/11 08:09:55;;;;;;;8.35;4.18;;;7.40;68.90;;;;;;5096949;28;20036;-53
2021/04/11 08:12:59;;;;;;;6.45;4.00;;;7.30;68.70;;;;;;5102681;28;20093;-49
2021/04/11 08:16:02;;;;;;;5.60;3.63;;;7.50;67.70;;;;;;5102415;28;20056;-51
2021/04/11 08:19:17;;;;;;;7.97;3.45;;;6.90;68.50;;;;;;5069618;28;20064;-49
2021/04/11 08:21:58;;;;;;;6.65;3.60;;;6.60;71.90;;;;;;4991096;28;20089;-51
2021/04/11 08:24:57;;;;;;;5.97;4.00;;;7.10;71.30;;;;;;4992269;28;20042;-51
2021/04/11 08:27:49;;;;;;;5.88;3.50;;;6.70;69.90;;;;;;4992406;28;20465;-54
2021/04/11 08:30:48;;;;;;;6.47;3.70;;;6.30;71.60;;;;;;4992508;28;20043;-50
2021/04/11 08:33:15;;;;;;;7.50;4.00;;;;;;;;;;4953684;28;20070;-53
2021/04/11 08:36:01;;;;;;;6.38;3.80;;;6.80;72.00;;;;;;4952791;28;20098;-47
2021/04/11 08:38:49;;;;;;;5.45;3.80;;;7.10;70.30;;;;;;4953316;28;20437;-48
2021/04/11 08:41:17;;;;;;;7.68;4.07;;;;;;;;;;4942213;28;20051;-48
2021/04/11 08:43:44;;;;;;;7.97;3.83;;;;;;;;;;4953184;28;20051;-49
2021/04/11 08:46:16;;;;;;;;;;;7.70;65.30;;;;;;4954255;28;20043;-51
2021/04/11 08:48:45;;;;;;;7.10;3.83;;;7.80;67.90;;;;;;4953164;28;19922;-51
2021/04/11 08:51:32;;;;;;;4.97;3.70;;;7.90;65.50;;;;;;4946873;28;20056;-48
2021/04/11 08:53:59;;;;;;;5.65;3.58;;;;;;;;;;4953090;28;20078;-51
2021/04/11 08:56:28;;;;;;;;;;;7.60;66.80;;;;;;4953075;28;20533;-51
2021/04/11 08:59:28;;;;;;;7.50;3.70;;;7.90;66.60;;;;;;4967918;28;19977;-53
2021/04/11 09:02:25;;;;;;;8.95;3.33;;;7.00;67.60;;;;;;4982352;28;20046;-51
2021/04/11 09:05:22;;;;;;;9.43;4.10;;;7.30;69.40;;;;;;4978158;28;20054;-51
2021/04/11 09:08:32;;;;;;;9.40;3.72;;;7.70;69.00;;;;;;4991115;28;20057;-52
2021/04/11 09:11:27;;;;;;;9.20;3.58;;;7.20;68.80;;;;;;5051198;28;20061;-52
2021/04/11 09:14:24;;;;;;;5.55;3.35;;;7.90;66.50;;;;;;5073619;28;20287;-50
2021/04/11 09:17:23;;;;;;;8.95;3.78;;;7.20;67.90;;;;;;5072856;28;20047;-49
2021/04/11 09:20:03;;;;;;;9.45;3.53;;;7.50;67.60;;;;;;5011017;28;20148;-52
2021/04/11 09:22:45;;;;;;;5.07;3.15;;;7.10;67.10;;;;;;5009403;28;20049;-54
2021/04/11 09:25:12;;;;;;;7.65;3.67;;;;;;;;;;5010971;28;20128;-48
2021/04/11 09:28:00;;;;;;;4.88;3.28;;;6.80;70.20;;;;;;5010746;28;20080;-55
2021/04/11 09:31:05;;;;;;;4.32;2.90;;;6.80;68.60;;;;;;5011078;28;20081;-52
2021/04/11 09:33:44;;;;;;;4.93;3.22;;;6.70;68.50;;;;;;4994352;28;20114;-49
2021/04/11 09:36:28;;;;;;;8.40;3.60;;;6.50;70.40;;;;;;5010742;28;20562;-53
2021/04/11 09:39:19;;;;;;;6.25;3.30;;;7.10;69.50;;;;;;5010322;28;20053;-52
2021/04/11 09:42:23;;;;;;;5.22;3.13;;;7.30;66.90;;;;;;5010812;28;20053;-52
2021/04/11 09:45:33;;;;;;;12.93;3.58;;;7.40;66.90;;;;;;5010939;28;20107;-48
2021/04/11 09:48:40;;;;;;;7.15;3.35;;;7.20;66.60;;;;;;5010122;28;20057;-53
2021/04/11 09:51:14;;;;;;;5.45;3.17;;;7.20;67.90;;;;;;5008891;28;20064;-48
2021/04/11 09:54:07;;;;;;;6.00;3.47;;;8.20;66.70;;;;;;5030147;28;20052;-49
2021/04/11 09:57:02;;;;;;;7.03;3.33;;;8.10;66.30;;;;;;5031845;28;20515;-53
2021/04/11 09:59:53;;;;;;;6.82;4.00;;;8.50;66.70;;;;;;5070671;28;20080;-58
2021/04/11 10:02:42;;;;;;;5.88;3.40;;;8.50;65.50;;;;;;5072394;28;20044;-52
2021/04/11 10:05:21;;;;;;;4.70;3.03;;;8.70;63.60;;;;;;5061318;28;20053;-54
2021/04/11 10:08:07;;;;;;;9.35;3.42;;;8.70;65.10;;;;;;5071871;28;20041;-53
2021/04/11 10:10:48;;;;;;;6.72;3.28;;;9.00;64.00;;;;;;5072453;28;20134;-51
2021/04/11 10:13:15;;;;;;;5.15;3.05;;;;;;;;;;5071913;28;20110;-52
2021/04/11 10:15:57;;;;;;;6.57;3.35;;;8.40;65.80;;;;;;5064331;28;20048;-49
2021/04/11 10:18:49;;;;;;;4.70;3.00;;;8.80;64.70;;;;;;5091458;28;20048;-51
2021/04/11 10:21:45;;;;;;;5.93;3.45;;;8.30;66.80;;;;;;5091822;28;20079;-53
2021/04/11 10:24:29;;;;;;;5.05;2.90;;;8.10;64.80;;;;;;5029619;28;20095;-53
2021/04/11 10:27:19;;;;;;;7.25;3.25;;;8.40;67.20;;;;;;5029335;28;20061;-55
2021/04/11 10:29:47;;;;;;;9.48;3.38;;;9.30;64.90;;;;;;5029502;28;20088;-54
2021/04/11 10:32:14;;;;;;;4.93;3.58;;;;;;;;;;5029007;28;20095;-52
2021/04/11 10:34:47;;;;;;;6.63;3.30;;;9.50;62.60;;;;;;5029157;28;20052;-51
2021/04/11 10:37:14;;;;;;;10.93;3.83;;;;;;;;;;5028832;28;20115;-52
2021/04/11 10:40:04;;;;;;;5.82;2.88;;;8.50;63.20;;;;;;5029560;28;20050;-51
2021/04/11 10:42:55;;;;;;;5.55;3.10;;;8.50;66.60;;;;;;5029194;28;20116;-51
2021/04/11 10:45:45;;;;;;;6.10;3.13;;;8.10;67.80;;;;;;5029214;28;20483;-49
2021/04/11 10:48:52;;;;;;;3.88;2.80;;;7.40;69.50;;;;;;5029128;28;20057;-49
2021/04/11 10:51:44;;;;;;;6.40;3.17;;;7.40;71.70;;;;;;5028527;28;20046;-51
2021/04/11 10:54:38;;;;;;;6.97;3.28;;;7.40;71.80;;;;;;4989297;28;20533;-52
2021/04/11 10:57:33;;;;;;;4.15;3.20;;;7.90;70.30;;;;;;4989269;28;20444;-52
2021/04/11 11:00:18;;;;;;;8.27;3.38;;;7.30;70.40;;;;;;4990509;28;20133;-49
2021/04/11 11:03:02;;;;;;;5.28;3.80;;;7.10;72.40;;;;;;5008993;28;20050;-53
2021/04/11 11:05:50;;;;;;;9.45;3.97;;;7.20;73.40;;;;;;5008832;28;20254;-51
2021/04/11 11:08:37;;;;;;;12.23;4.63;;;7.50;72.50;;;;;;4990707;28;20046;-50
2021/04/11 11:11:25;;;;;;;8.75;3.78;;;7.40;71.50;;;;;;4305265;28;10000713;-54
2021/04/11 11:13:52;;;;;;;6.35;3.17;;;;;;;;;;5006339;28;20050;-50
2021/04/11 11:16:38;;;;;;;7.57;3.67;;;7.60;72.70;;;;;;5005420;28;20500;-52
2021/04/11 11:19:28;;;;;;;6.50;3.72;;;8.50;70.70;;;;;;4993927;28;20093;-51
2021/04/11 11:22:03;;;;;;;9.65;3.22;;;7.70;66.40;;;;;;4994783;28;20145;-53
2021/04/11 11:24:49;;;;;;;5.45;3.40;;;7.70;68.50;;;;;;5006227;28;20066;-53
2021/04/11 11:27:39;;;;;;;7.43;3.00;;;7.30;70.10;;;;;;5005945;28;20046;-48
2021/04/11 11:30:31;;;;;;;7.35;3.20;;;7.40;70.00;;;;;;4993072;28;20769;-51
2021/04/11 11:33:30;;;;;;;3.72;2.80;;;7.30;68.90;;;;;;5089040;28;20047;-51
2021/04/11 11:35:57;;;;;;;7.30;2.90;;;;;;;;;;5088426;28;20051;-48
2021/04/11 11:38:31;;;;;;;;;;;7.30;70.10;;;;;;5088632;28;20052;-50
2021/04/11 11:41:26;;;;;;;3.17;2.70;;;8.20;66.70;;;;;;5088565;28;19932;-53
2021/04/11 11:44:02;;;;;;;4.93;3.05;;;8.10;63.00;;;;;;5069885;28;20109;-50
2021/04/11 11:46:52;;;;;;;7.57;4.53;;;8.10;63.00;;;;;;5088377;28;20106;-52
2021/04/11 11:49:42;;;;;;;3.70;2.60;;;8.00;62.00;;;;;;5087909;28;20529;-53
2021/04/11 11:52:14;;;;;;;5.47;3.25;;;8.10;62.80;;;;;;5085925;28;20091;-52
2021/04/11 11:54:47;;;;;;;7.10;3.00;;;8.20;62.30;;;;;;5088056;28;20097;-51
2021/04/11 11:57:51;;;;;;;5.60;2.70;;;8.30;61.80;;;;;;5088134;28;20040;-51
2021/04/11 12:00:35;;;;;;;4.45;2.63;;;7.70;64.60;;;;;;5078853;28;20068;-51
2021/04/11 12:03:34;;;;;;;4.13;3.00;;;8.20;65.80;;;;;;5087919;28;20134;-54
2021/04/11 12:06:18;;;;;;;5.05;3.08;;;8.20;66.40;;;;;;5088139;28;20044;-53
2021/04/11 12:09:15;;;;;;;9.43;3.20;;;8.70;64.60;;;;;;5093348;28;20438;-55
2021/04/11 12:11:55;;;;;;;6.75;3.28;;;9.10;61.70;;;;;;5059511;28;20040;-52
2021/04/11 12:14:44;;;;;;;7.05;3.20;;;9.20;62.30;;;;;;5102482;28;20047;-52
2021/04/11 12:17:48;;;;;;;8.00;3.47;;;9.20;59.20;;;;;;5084291;28;20091;-54
2021/04/11 12:20:39;;;;;;;7.43;3.55;;;9.60;61.70;;;;;;5051808;28;20044;-54
2021/04/11 12:23:26;;;;;;;11.00;3.80;;;10.10;58.20;;;;;;5052288;28;20097;-49
2021/04/11 12:26:16;;;;;;;7.38;3.40;;;9.00;61.70;;;;;;5070563;28;20065;-52
2021/04/11 12:28:44;;;;;;;5.90;3.50;;;8.50;61.40;;;;;;5069911;28;20071;-53
2021/04/11 12:31:25;;;;;;;4.80;3.00;;;8.30;61.50;;;;;;5070244;28;20063;-53
2021/04/11 12:34:22;;;;;;;8.25;3.28;;;8.70;62.40;;;;;;5070009;28;20049;-49
2021/04/11 12:36:49;;;;;;;5.13;3.05;;;;;;;;;;5069690;28;20083;-49
2021/04/11 12:39:21;;;;;;;;;;;9.10;60.80;;;;;;5070321;28;20098;-56
2021/04/11 12:41:56;;;;;;;6.85;3.15;;;9.60;58.70;;;;;;5051931;28;19940;-51
2021/04/11 12:44:48;;;;;;;4.65;2.80;;;9.80;57.90;;;;;;5070079;28;20067;-54
2021/04/11 12:47:18;;;;;;;6.75;2.92;;;9.80;57.30;;;;;;5069752;28;20384;-53
2021/04/11 12:50:03;;;;;;;3.30;2.80;;;9.00;58.60;;;;;;5070245;28;20513;-53
2021/04/11 12:52:38;;;;;;;3.33;2.90;;;8.80;59.60;;;;;;5069658;28;20087;-52
2021/04/11 12:55:10;;;;;;;3.53;2.70;;;;;;;;;;5069902;28;20048;-51
2021/04/11 12:57:53;;;;;;;7.43;2.92;;;8.30;58.10;;;;;;5054550;28;20041;-52
2021/04/11 13:00:40;;;;;;;7.57;3.05;;;9.30;59.90;;;;;;5055322;28;20072;-54
2021/04/11 13:03:27;;;;;;;3.70;2.80;;;10.10;57.20;;;;;;5073724;28;20052;-55
2021/04/11 13:06:16;;;;;;;8.93;2.97;;;10.30;54.40;;;;;;5073024;28;20040;-49
2021/04/11 13:09:30;;;;;;;2.75;2.40;;;10.70;52.50;;;;;;5073257;28;20051;-51
2021/04/11 13:12:34;;;;;;;3.55;2.80;;;10.40;54.70;;;;;;4991299;28;20078;-51
2021/04/11 13:15:02;;;;;;;5.93;2.60;;;;;;;;;;4977952;28;20137;-52
2021/04/11 13:17:37;;;;;;;3.97;2.60;;;11.60;48.00;;;;;;4990728;28;20035;-50
2021/04/11 13:20:22;;;;;;;5.00;2.60;;;10.20;51.10;;;;;;4991421;28;20059;-51
2021/04/11 13:23:04;;;;;;;4.10;2.63;;;10.70;54.40;;;;;;4991412;28;20054;-52
2021/04/11 13:25:43;;;;;;;4.20;2.45;;;10.00;51.10;;;;;;4974787;28;20453;-53
2021/04/11 13:28:38;;;;;;;6.60;2.58;;;9.70;54.20;;;;;;5011176;28;20136;-50
2021/04/11 13:31:09;;;;;;;2.60;2.40;;;10.10;52.90;;;;;;5011161;28;20050;-50
2021/04/11 13:33:46;;;;;;;5.63;2.60;;;10.50;49.20;;;;;;5010892;28;20108;-49
2021/04/11 13:36:24;;;;;;;;;;;10.50;49.40;;;;;;5010942;28;20053;-51
2021/04/11 13:39:00;;;;;;;3.47;2.40;;;11.60;46.90;;;;;;5010302;28;19975;-51
2021/04/11 13:41:51;;;;;;;6.10;2.97;;;11.50;46.00;;;;;;5010339;28;20065;-51
2021/04/11 13:44:39;;;;;;;4.45;2.60;;;11.90;45.70;;;;;;5010804;28;20041;-54
2021/04/11 13:47:27;;;;;;;3.70;2.58;;;11.90;44.40;;;;;;5050061;28;20087;-52
2021/04/11 13:50:09;;;;;;;6.97;2.42;;;11.70;46.00;;;;;;5072420;28;20044;-54
2021/04/11 13:52:58;;;;;;;4.05;2.63;;;10.40;48.10;;;;;;5072047;28;20537;-51
2021/04/11 13:55:25;;;;;;;4.07;2.50;;;;;;;;;;5071628;28;20053;-53
2021/04/11 13:57:53;;;;;;;4.18;2.63;;;;;;;;;;5072390;28;20178;-48
2021/04/11 14:00:40;;;;;;;6.05;3.22;;;9.80;51.50;;;;;;5072280;28;20056;-54
2021/04/11 14:03:19;;;;;;;5.47;2.50;;;10.30;49.10;;;;;;5072362;28;20478;-49
2021/04/11 14:05:54;;;;;;;8.70;2.90;;;10.50;47.90;;;;;;5072144;28;20047;-55
2021/04/11 14:08:37;;;;;;;3.67;2.50;;;10.80;47.80;;;;;;5078462;28;20390;-49
2021/04/11 14:11:17;;;;;;;4.85;2.92;;;11.10;48.70;;;;;;5085265;28;20469;-54
2021/04/11 14:14:14;;;;;;;3.55;2.50;;;10.50;48.60;;;;;;5074041;28;20044;-53
2021/04/11 14:16:59;;;;;;;5.95;2.90;;;10.50;48.50;;;;;;5108994;28;20101;-54
2021/04/11 14:19:39;;;;;;;4.30;3.20;;;10.50;48.20;;;;;;5110458;28;20055;-55
2021/04/11 14:22:28;;;;;;;4.30;2.65;;;10.40;47.00;;;;;;5084457;28;20048;-54
2021/04/11 14:24:55;;;;;;;7.03;2.85;;;;;;;;;;5111922;28;20040;-54
2021/04/11 14:27:46;;;;;;;5.25;2.85;;;11.20;47.20;;;;;;5095387;28;20036;-52
2021/04/11 14:30:28;;;;;;;4.80;2.70;;;11.40;45.50;;;;;;5094172;28;20086;-53
2021/04/11 14:32:55;;;;;;;4.45;2.50;;;;;;;;;;5083410;28;20393;-54